DSNT2: Lake Texoma, Denison Dam

Data processed at Wed May 22 2019 23:50


All information presented herein is the property of the government of the United States of America and may be revised or deleted at any time without prior notice.
Dissemination of this information without the expressed written consent of the Public Affairs Office, Tulsa District U.S. Army Corps of Engineers is strictly prohibited.
These data are gathered electronically and, as presented, have not undergone any form of quality control. These data are not guaranteed to be valid or correct.
Go to home page.
Go to station list.
Go to home page.

Upstream stations:

Downstream station:
Previous Day
Next Day
Current Day
    
SHEF ID:       DSNT2     Lake Texoma
STATION TYPE:  Reservoir
Flood Pool:  Bottom =   617.83, Top =   640.00

               PRECIP PRECIP(A) ELEVATION   STORAGE   TW-ELEV    INFLOW   RELEASE  AIR-TEMP  WIND-DIRWIND-SPEED REL-HUMID SOLAR-RAD   VOLTAGE  BAT-LOAD
                   in        in        ft     ac-ft        ft       cfs       cfs         F       deg       mph         %      W/m2      volt      volt
              Ccp-Rev   Ccp-Rev   Ccp-Rev   Ccp-Rev   Ccp-Rev  Rev-Regi  Rev-Regi   Ccp-Rev   Ccp-Rev   Ccp-Rev   Ccp-Rev   Ccp-Rev   Ccp-Rev   Ccp-Rev
(US/Central)
05/22 00:00      0.00      ----    626.59   3366837    510.25     24855     29712     67.77    175.10      8.50     76.86      0.00     12.85     12.56
05/22 01:00      0.00      ----    626.59   3366837    510.23     24825     29861     67.87    180.30      9.00     77.12      0.00     12.84     12.54
05/22 02:00      0.00      ----    626.58   3365802    510.23     24824     29860     67.44    187.80      9.00     78.72      0.00     12.83     12.54
05/22 03:00      0.00      ----    626.58   3365802    510.23     27357     29860     67.03    183.10      9.90     78.46      0.00     12.82     12.53
05/22 04:00      0.00      ----    626.58   3365802    510.25     27357     29860     67.06    178.10      9.20     73.26      0.00     12.80     12.53
05/22 05:00      0.00      ----    626.58   3365802    510.24     29860     29860     66.81    158.70      6.20     69.93      0.00     12.78     12.50
05/22 06:00      0.00      ----    626.58   3365802    510.24     29860     29860     67.42    149.50      4.10     77.76      0.00     12.77     12.49
05/22 07:00      0.00      ----    626.58   3365802    510.22     29860     29860     68.92    180.60      6.90     86.01      0.70     12.77     12.47
05/22 08:00      0.00      ----    626.58   3365802    510.23     29830     29860     69.30    148.20      5.60     90.11     36.20     13.03     12.48
05/22 09:00      0.00      ----    626.58   3365802    510.23     29830     29860     70.70    140.00      5.40     94.96     60.10     13.38     12.73
05/22 10:00      0.00      ----    626.58   3365802    510.23     29830     29710     73.33    145.00      8.20     92.25    222.40     13.62     13.09
05/22 11:00      0.00      ----    626.58   3365802    510.22     27326     29860     78.22    175.00     11.20     81.64    398.50     14.01     13.25
05/22 12:00      0.00      ----    626.58   3365802    510.22     27326     29860     79.90    174.10     10.70     78.38    375.10     13.63     13.30
05/22 13:00      0.00      ----    626.57   3364768    510.22     24852     29859     81.97    178.80     11.90     73.11    451.50     13.72     13.22
05/22 14:00      0.00      ----    626.57   3364768    510.22     22349     29858     83.93    176.40     14.90     67.83    712.90     13.58     13.45
05/22 15:00      0.00      ----    626.56   3363734    510.23     22348     29858     85.53    176.50     14.60     62.94    570.10     14.21     13.36
05/22 16:00      0.00      ----    626.55   3362699    510.23     22347     29856     86.20    170.20     16.40     59.31    653.60     13.56     13.09
05/22 17:00      0.00      ----    626.55   3362699    510.23     19813     29856     86.67    168.00     16.50     57.88    694.80     14.15     13.06
05/22 18:00      0.00      ----    626.54   3361665    510.23     22315     29855     86.41    159.50     17.60     58.91    475.70     13.65     13.09
05/22 19:00      0.00      ----    626.53   3360631    510.23     24818     29704     85.64    154.30     15.70     60.02    250.60     14.12     13.06
05/22 20:00      0.00      ----    626.53   3360631    510.23     24817     29853     83.84    148.00     14.30     62.69     25.90     13.18     13.09
05/22 21:00      0.00      ----    626.53   3360631    510.21     27320     29853     82.35    137.60     10.20     65.25      0.00     12.97     12.86
05/22 22:00      0.00      ----    626.53   3360631    510.21     29853     29853     80.13    121.60      6.90     70.39      0.00     12.88     12.66
05/22 23:00      0.00      ----    626.53   3360631    510.22     29853     29853     79.29    131.10      7.70     74.25      0.00     12.86     12.57